Time;durP1;ratioP1;P1;durP2;ratioP2;P2;SDS_P1;SDS_P2;PMS_P1;PMS_P2;Temp;Humidity;BMP_temperature;BMP_pressure;BME280_temperature;BME280_humidity;BME280_pressure;Samples;Min_cycle;Max_cycle;Signal;HPM_P1;HPM_P2
2023/09/14 00:00:14;;;;;;;12.73;5.68;;;;;;;24.61;55.19;100096.59;5461830;32;35369;-86
2023/09/14 00:03:16;;;;;;;11.70;5.25;;;;;;;24.30;55.15;100089.78;5457785;32;36064;-70
2023/09/14 00:06:19;;;;;;;;;;;;;;;24.56;54.37;100083.63;5454056;32;33897;-70
2023/09/14 00:09:21;;;;;;;6.53;4.55;;;;;;;24.75;53.51;100096.84;5463630;32;35653;-77
2023/09/14 00:12:23;;;;;;;;;;;;;;;24.63;53.81;100110.72;5457506;32;34990;-67
2023/09/14 00:15:25;;;;;;;8.88;4.28;;;;;;;23.94;55.21;100114.94;5458781;32;34320;-69
2023/09/14 00:18:28;;;;;;;;;;;;;;;24.43;53.74;100107.38;5454830;32;34139;-86
2023/09/14 00:21:31;;;;;;;6.62;3.80;;;;;;;24.01;54.90;100103.44;5454701;32;34201;-86
2023/09/14 00:24:33;;;;;;;7.28;3.95;;;;;;;23.91;55.33;100108.06;5456562;32;34003;-86
2023/09/14 00:27:36;;;;;;;;;;;;;;;23.61;56.10;100111.03;5456863;32;35273;-77
2023/09/14 00:30:38;;;;;;;5.50;3.50;;;;;;;23.56;56.29;100107.94;5461337;32;34005;-68
2023/09/14 00:33:40;;;;;;;9.57;3.90;;;;;;;23.38;56.83;100095.38;5456395;32;34908;-69
2023/09/14 00:36:43;;;;;;;5.45;3.20;;;;;;;23.62;56.28;100100.19;5459639;32;35579;-68
2023/09/14 00:39:45;;;;;;;;;;;;;;;23.96;55.33;100091.50;5458480;32;34241;-69
2023/09/14 00:42:51;;;;;;;5.97;3.17;;;;;;;23.60;56.83;100101.31;5456737;32;35469;-69
2023/09/14 00:45:53;;;;;;;8.18;3.67;;;;;;;23.22;58.16;100087.09;5455035;32;35171;-69
2023/09/14 00:48:56;;;;;;;;;;;;;;;23.51;57.92;100078.91;5454377;32;35276;-69
2023/09/14 00:51:58;;;;;;;9.07;4.35;;;;;;;23.73;57.51;100072.31;5455253;32;34372;-86
2023/09/14 00:55:02;;;;;;;7.87;3.70;;;;;;;22.89;60.68;100073.28;5449159;32;35298;-77
2023/09/14 00:58:05;;;;;;;7.85;3.90;;;;;;;23.48;58.59;100069.31;5454321;32;34127;-77
2023/09/14 01:01:08;;;;;;;7.78;3.62;;;;;;;23.14;59.84;100054.84;5452664;32;35310;-85
2023/09/14 01:04:10;;;;;;;6.30;3.72;;;;;;;23.23;59.73;100053.94;5461289;32;34234;-69
2023/09/14 01:07:15;;;;;;;5.53;3.65;;;;;;;23.72;58.12;100055.34;5463565;32;34981;-86
2023/09/14 01:10:18;;;;;;;7.87;4.10;;;;;;;24.22;56.56;100070.09;5452777;32;33951;-69
2023/09/14 01:14:11;;;;;;;8.18;3.90;;;;;;;24.69;55.11;100065.25;5464652;32;33942;-68
2023/09/14 01:17:26;;;;;;;11.10;4.37;;;;;;;23.17;59.95;100066.09;5456622;32;33953;-69
2023/09/14 01:21:13;;;;;;;12.18;4.85;;;;;;;23.37;59.48;100055.28;5447678;32;34551;-68
2023/09/14 01:24:34;;;;;;;10.63;4.60;;;;;;;23.71;58.68;100050.16;5453700;32;34120;-68
2023/09/14 01:27:36;;;;;;;9.45;4.28;;;;;;;23.35;59.49;100054.59;5451674;32;35607;-76
2023/09/14 01:30:40;;;;;;;;;;;;;;;22.69;61.68;100059.06;5457371;32;35291;-86
2023/09/14 01:33:43;;;;;;;7.97;4.32;;;;;;;23.59;58.70;100067.44;5460025;32;34337;-86
2023/09/14 01:36:45;;;;;;;10.77;4.40;;;;;;;23.18;60.19;100059.72;5452414;32;34143;-68
2023/09/14 01:39:48;;;;;;;12.20;4.50;;;;;;;23.08;60.73;100056.28;5455247;32;34001;-69
2023/09/14 01:42:50;;;;;;;9.43;4.43;;;;;;;22.59;62.58;100055.56;5452729;32;34034;-87
2023/09/14 01:45:53;;;;;;;9.15;4.53;;;;;;;22.88;62.23;100052.00;5451961;32;34209;-87
2023/09/14 01:48:55;;;;;;;10.18;4.18;;;;;;;22.95;62.10;100042.38;5453770;32;35532;-87
2023/09/14 01:52:29;;;;;;;;;;;;;;;22.95;62.65;100039.69;5447803;32;35932;-87
2023/09/14 01:55:37;;;;;;;10.10;4.50;;;;;;;22.62;64.71;100052.59;5406947;32;33492;-69
2023/09/14 01:58:40;;;;;;;7.30;4.43;;;;;;;22.16;66.96;100045.38;5419052;32;35154;-86
2023/09/14 02:01:42;;;;;;;9.55;4.87;;;;;;;21.99;67.80;100036.19;5414130;32;34391;-87
2023/09/14 02:04:47;;;;;;;11.05;5.22;;;;;;;22.12;67.53;100039.44;5414331;32;34031;-87
2023/09/14 02:07:49;;;;;;;10.40;4.60;;;;;;;22.34;66.11;100042.78;5407405;32;33953;-69
2023/09/14 02:10:52;;;;;;;9.60;4.95;;;;;;;21.97;67.61;100056.91;5421018;32;35431;-70
2023/09/14 02:13:54;;;;;;;7.78;4.20;;;;;;;22.09;67.10;100054.94;5414888;32;33771;-76
2023/09/14 02:16:56;;;;;;;;;;;;;;;23.16;63.27;100063.56;5377833;32;1072728;-68
2023/09/14 02:19:59;;;;;;;7.80;4.72;;;;;;;22.21;66.33;100063.66;5418581;32;33922;-69
2023/09/14 02:23:02;;;;;;;7.93;4.55;;;;;;;22.62;65.64;100067.84;5407875;32;33953;-69
2023/09/14 02:26:04;;;;;;;9.73;4.80;;;;;;;22.74;64.67;100077.41;5417073;32;33994;-68
2023/09/14 02:29:06;;;;;;;8.13;4.60;;;;;;;22.63;65.27;100073.03;5421254;32;33828;-68
2023/09/14 02:32:09;;;;;;;8.07;4.57;;;;;;;23.05;63.50;100082.50;5421977;32;35106;-70
2023/09/14 02:35:11;;;;;;;7.57;4.57;;;;;;;22.53;65.93;100085.59;5409105;32;34284;-87
2023/09/14 02:38:14;;;;;;;8.80;5.05;;;;;;;22.85;64.28;100087.91;5420696;32;34116;-86
2023/09/14 02:41:17;;;;;;;;;;;;;;;22.68;64.81;100088.69;5406415;32;33960;-69
2023/09/14 02:44:20;;;;;;;9.10;4.75;;;;;;;22.88;63.76;100089.50;5422559;32;35061;-69
2023/09/14 02:47:22;;;;;;;9.65;4.90;;;;;;;22.91;63.36;100081.16;5417756;32;34020;-69
2023/09/14 02:50:24;;;;;;;8.85;4.37;;;;;;;23.01;62.87;100087.34;5414782;32;35267;-87
2023/09/14 02:53:27;;;;;;;7.85;4.30;;;;;;;23.38;61.19;100084.63;5421963;32;33895;-69
2023/09/14 02:56:29;;;;;;;6.82;4.18;;;;;;;22.19;65.05;100093.25;5413894;32;35149;-69
2023/09/14 02:59:31;;;;;;;;;;;;;;;22.33;64.94;100094.66;5411930;32;35112;-86
2023/09/14 03:02:34;;;;;;;9.68;4.07;;;;;;;22.48;64.19;100098.59;5422697;32;35352;-76
2023/09/14 03:05:36;;;;;;;;;;;;;;;22.77;63.39;100103.03;5434448;32;35209;-76
2023/09/14 03:08:39;;;;;;;10.55;4.82;;;;;;;22.95;62.61;100099.50;5452111;32;34461;-68
2023/09/14 03:11:41;;;;;;;;;;;;;;;23.10;61.25;100099.00;5454446;32;34103;-86
2023/09/14 03:14:43;;;;;;;7.10;4.18;;;;;;;23.69;59.56;100108.47;5457902;32;34255;-87
2023/09/14 03:17:46;;;;;;;6.90;4.03;;;;;;;23.38;60.19;100099.84;5456199;32;35215;-69
2023/09/14 03:20:56;;;;;;;;;;;;;;;23.14;61.08;100095.91;5450867;32;34010;-77
2023/09/14 03:23:58;;;;;;;8.32;3.70;;;;;;;23.44;59.82;100102.81;5449250;32;35139;-77
2023/09/14 03:27:01;;;;;;;7.90;4.03;;;;;;;22.92;61.88;100107.81;5451971;32;34115;-68
2023/09/14 03:30:04;;;;;;;9.07;4.00;;;;;;;22.64;63.27;100109.53;5459258;32;35389;-69
2023/09/14 03:33:06;;;;;;;8.38;4.20;;;;;;;23.33;60.94;100099.47;5460279;32;33962;-68
2023/09/14 03:36:10;;;;;;;7.62;3.92;;;;;;;23.29;60.76;100100.75;5456751;32;33913;-86
2023/09/14 03:39:12;;;;;;;8.00;3.80;;;;;;;22.59;62.89;100113.62;5454788;32;34140;-86
2023/09/14 03:42:18;;;;;;;7.03;4.32;;;;;;;22.57;63.27;100104.91;5454641;32;36072;-69
2023/09/14 03:45:20;;;;;;;;;;;;;;;22.71;63.05;100104.47;5452579;32;33970;-86
2023/09/14 03:48:23;;;;;;;8.88;4.40;;;;;;;22.95;61.83;100106.69;5454884;32;34207;-85
2023/09/14 03:51:25;;;;;;;;;;;;;;;23.22;61.05;100104.03;5450432;32;37223;-68
2023/09/14 03:54:28;;;;;;;8.27;4.32;;;;;;;22.55;63.10;100115.78;5458694;32;34297;-69
2023/09/14 03:57:30;;;;;;;;;;;;;;;22.30;64.70;100119.88;5465985;32;34062;-85
2023/09/14 04:00:33;;;;;;;8.88;4.50;;;;;;;22.47;64.29;100118.31;5460389;32;34302;-85
2023/09/14 04:03:35;;;;;;;8.40;4.85;;;;;;;22.67;63.63;100130.72;5456336;32;34170;-69
2023/09/14 04:06:37;;;;;;;;;;;;;;;22.44;64.95;100137.34;5454077;32;34200;-86
2023/09/14 04:09:41;;;;;;;10.20;5.03;;;;;;;22.15;66.42;100143.56;5459427;32;34238;-69
2023/09/14 04:12:44;;;;;;;7.65;4.60;;;;;;;22.64;64.59;100146.19;5453290;32;34062;-69
2023/09/14 04:15:46;;;;;;;;;;;;;;;22.83;63.77;100145.31;5452218;32;34017;-88
2023/09/14 04:18:48;;;;;;;10.00;4.67;;;;;;;22.75;63.98;100147.88;5456510;32;34125;-69
2023/09/14 04:21:52;;;;;;;8.25;4.62;;;;;;;22.40;65.37;100152.00;5450220;32;35100;-86
2023/09/14 04:24:55;;;;;;;15.48;5.12;;;;;;;21.68;68.48;100152.31;5460837;32;34218;-76
2023/09/14 04:27:57;;;;;;;;;;;;;;;21.97;67.69;100150.56;5452967;32;35458;-86
2023/09/14 04:31:01;;;;;;;10.17;4.97;;;;;;;21.81;68.24;100147.56;5454861;32;35973;-68
2023/09/14 04:34:06;;;;;;;10.63;6.28;;;;;;;21.84;68.32;100144.63;5463167;32;33977;-68
2023/09/14 04:37:09;;;;;;;9.75;5.55;;;;;;;21.65;69.34;100149.91;5454688;32;34884;-85
2023/09/14 04:40:12;;;;;;;9.70;5.53;;;;;;;22.05;67.77;100148.03;5460421;32;35284;-86
2023/09/14 04:43:14;;;;;;;9.50;4.87;;;;;;;21.48;69.37;100154.06;5453009;32;35153;-87
2023/09/14 04:46:17;;;;;;;8.65;5.50;;;;;;;21.55;69.74;100152.56;5458808;32;33893;-86
2023/09/14 04:49:19;;;;;;;;;;;;;;;21.63;69.33;100150.88;5454106;32;34064;-69
2023/09/14 04:52:22;;;;;;;9.67;5.17;;;;;;;21.19;70.80;100159.25;5451653;32;35515;-87
2023/09/14 04:55:25;;;;;;;11.40;5.95;;;;;;;21.51;70.14;100168.03;5461982;32;36647;-87
2023/09/14 04:58:29;;;;;;;9.68;5.20;;;;;;;21.91;68.27;100156.47;5441831;32;34186;-85
2023/09/14 05:01:32;;;;;;;10.07;5.05;;;;;;;21.42;70.11;100174.19;5456419;32;33951;-69
2023/09/14 05:04:34;;;;;;;10.32;5.82;;;;;;;22.57;65.71;100171.88;5456785;32;33935;-70
2023/09/14 05:07:38;;;;;;;8.68;4.75;;;;;;;22.66;65.13;100162.97;5455277;32;33959;-86
2023/09/14 05:10:40;;;;;;;9.57;5.00;;;;;;;22.66;65.08;100171.00;5455340;32;34102;-86
2023/09/14 05:13:42;;;;;;;7.68;4.50;;;;;;;21.95;66.71;100173.91;5448793;32;34074;-86
2023/09/14 05:16:45;;;;;;;8.52;4.45;;;;;;;21.80;68.19;100177.97;5461941;32;35269;-68
2023/09/14 05:19:47;;;;;;;9.45;6.10;;;;;;;22.58;65.09;100182.44;5449380;32;35355;-70
2023/09/14 05:22:49;;;;;;;9.68;4.47;;;;;;;22.90;63.17;100175.94;5456501;32;33956;-67
2023/09/14 05:25:51;;;;;;;7.97;4.45;;;;;;;22.95;63.57;100173.69;5455331;32;34197;-69
2023/09/14 05:28:54;;;;;;;9.80;5.12;;;;;;;23.15;62.77;100178.00;5451856;32;34102;-70
2023/09/14 05:31:56;;;;;;;11.27;4.95;;;;;;;23.26;62.93;100179.66;5442725;32;34083;-69
2023/09/14 05:34:58;;;;;;;7.65;4.35;;;;;;;23.88;60.80;100179.97;5456730;32;34043;-69
2023/09/14 05:38:00;;;;;;;;;;;;;;;23.76;60.51;100177.50;5458201;32;36027;-87
2023/09/14 05:41:05;;;;;;;8.50;4.55;;;;;;;23.87;60.09;100180.97;5454171;32;34562;-87
2023/09/14 05:44:10;;;;;;;11.45;4.55;;;;;;;24.50;57.83;100186.34;5460858;32;34791;-69
2023/09/14 05:47:13;;;;;;;9.68;4.57;;;;;;;24.79;57.16;100192.28;5454674;32;34129;-75
2023/09/14 05:50:15;;;;;;;7.80;4.22;;;;;;;25.65;54.17;100178.88;5448142;32;35212;-70
2023/09/14 05:53:17;;;;;;;14.13;6.53;;;;;;;25.40;54.28;100179.75;5451698;32;33867;-71
2023/09/14 05:56:19;;;;;;;12.75;5.05;;;;;;;24.74;56.68;100193.75;5448888;32;33747;-70
2023/09/14 05:59:22;;;;;;;7.00;3.87;;;;;;;24.66;57.13;100191.81;5454157;32;34983;-71
2023/09/14 06:02:34;;;;;;;7.00;3.90;;;;;;;25.31;55.15;100186.97;5453124;32;34447;-79
2023/09/14 06:05:36;;;;;;;10.20;4.37;;;;;;;25.76;53.29;100185.84;5447818;32;34813;-72
2023/09/14 06:08:40;;;;;;;9.38;4.47;;;;;;;24.64;56.30;100193.00;5445420;32;34114;-68
2023/09/14 06:11:43;;;;;;;7.53;4.30;;;;;;;24.50;57.71;100197.91;5446232;32;34129;-76
2023/09/14 06:14:45;;;;;;;9.85;4.37;;;;;;;26.31;52.50;100196.06;5450282;32;34726;-68
2023/09/14 06:17:47;;;;;;;;;;;;;;;25.15;55.25;100202.16;5449167;32;34800;-73
2023/09/14 06:20:49;;;;;;;;;;;;;;;25.63;53.42;100197.03;5450408;32;34336;-68
2023/09/14 06:23:52;;;;;;;6.62;4.05;;;;;;;25.52;53.88;100201.84;5432597;32;35354;-65
2023/09/14 06:26:55;;;;;;;10.30;4.62;;;;;;;25.09;55.39;100214.38;5430043;32;34213;-67
2023/09/14 06:29:57;;;;;;;11.57;6.90;;;;;;;26.11;52.38;100206.31;5429415;32;35168;-83
2023/09/14 06:32:59;;;;;;;8.93;4.35;;;;;;;26.38;52.21;100210.56;5428415;32;34339;-63
2023/09/14 06:36:06;;;;;;;9.32;4.62;;;;;;;25.83;52.70;100226.44;5430184;32;35291;-81
2023/09/14 06:39:10;;;;;;;10.13;4.25;;;;;;;26.26;50.91;100219.13;5415890;32;33266;-63
2023/09/14 06:42:12;;;;;;;9.93;4.60;;;;;;;27.03;49.74;100223.25;5433124;32;35745;-73
2023/09/14 06:45:15;;;;;;;8.20;4.20;;;;;;;26.84;49.88;100227.13;5430174;32;34045;-78
2023/09/14 06:48:18;;;;;;;12.32;5.15;;;;;;;26.39;51.46;100224.88;5432085;32;34255;-77
2023/09/14 06:51:20;;;;;;;9.93;4.87;;;;;;;26.54;51.27;100227.81;5428263;32;35630;-80
2023/09/14 06:54:22;;;;;;;9.65;4.75;;;;;;;26.93;49.83;100218.03;5442197;32;34427;-87
2023/09/14 06:57:25;;;;;;;7.55;4.45;;;;;;;27.89;47.48;100219.87;5445975;32;33871;-78
2023/09/14 07:00:27;;;;;;;13.23;5.47;;;;;;;28.37;45.65;100220.63;5443612;32;35555;-81
2023/09/14 07:03:32;;;;;;;10.88;4.62;;;;;;;26.42;50.96;100228.13;5433171;32;34438;-78
2023/09/14 07:06:35;;;;;;;12.00;4.87;;;;;;;26.64;50.88;100228.47;5383184;32;37635;-76
2023/09/14 07:09:38;;;;;;;10.02;4.60;;;;;;;27.12;50.00;100232.22;5402781;32;34048;-78
2023/09/14 07:12:40;;;;;;;7.12;4.72;;;;;;;26.78;50.14;100230.50;5395681;32;34063;-80
2023/09/14 07:15:42;;;;;;;11.60;4.78;;;;;;;25.39;54.13;100253.41;5406894;32;33102;-80
2023/09/14 07:18:45;;;;;;;7.62;4.32;;;;;;;25.65;53.71;100248.00;5402167;32;35524;-72
2023/09/14 07:21:50;;;;;;;10.20;4.70;;;;;;;25.97;53.53;100249.19;5401046;32;35394;-83
2023/09/14 07:24:54;;;;;;;9.45;5.18;;;;;;;28.34;46.76;100237.22;5410922;32;35352;-87
2023/09/14 07:27:56;;;;;;;11.07;7.18;;;;;;;28.71;45.40;100252.66;5410255;32;33888;-77
2023/09/14 07:31:03;;;;;;;9.73;4.57;;;;;;;28.07;46.91;100252.84;5396131;32;35740;-80
2023/09/14 07:34:06;;;;;;;11.23;4.80;;;;;;;28.91;44.95;100247.59;5394034;32;35715;-80
2023/09/14 07:37:08;;;;;;;8.32;4.68;;;;;;;28.38;46.49;100252.03;5398569;32;36108;-72
2023/09/14 07:40:11;;;;;;;8.55;4.15;;;;;;;28.77;45.03;100259.22;5394846;32;35643;-71
2023/09/14 07:43:16;;;;;;;7.00;4.30;;;;;;;29.74;42.74;100267.47;5399637;32;37017;-78
2023/09/14 07:46:19;;;;;;;10.68;4.95;;;;;;;29.07;44.90;100263.72;5395238;32;34433;-79
2023/09/14 07:49:22;;;;;;;14.23;6.03;;;;;;;28.44;46.07;100264.84;5401421;32;35964;-75
2023/09/14 07:52:25;;;;;;;8.07;4.80;;;;;;;28.87;45.02;100267.94;5396377;32;35410;-76
2023/09/14 07:55:28;;;;;;;9.30;5.07;;;;;;;30.27;41.46;100269.03;5403866;32;35545;-85
2023/09/14 07:58:30;;;;;;;10.48;4.80;;;;;;;28.13;47.01;100267.50;5416802;32;35826;-79
2023/09/14 08:01:33;;;;;;;9.63;4.85;;;;;;;29.81;42.42;100279.22;5407669;32;33969;-79
2023/09/14 08:04:35;;;;;;;26.27;6.90;;;;;;;30.37;41.04;100280.41;5414223;32;33815;-71
2023/09/14 08:07:38;;;;;;;10.45;5.05;;;;;;;29.82;42.56;100275.50;5417752;32;34165;-83
2023/09/14 08:10:40;;;;;;;8.82;5.47;;;;;;;29.85;42.37;100278.69;5416856;32;34112;-78
2023/09/14 08:13:42;;;;;;;9.32;5.80;;;;;;;26.97;49.64;100296.75;5416308;32;34852;-77
2023/09/14 08:16:45;;;;;;;13.77;5.78;;;;;;;27.48;48.35;100286.62;5414535;32;35602;-75
2023/09/14 08:19:48;;;;;;;11.85;5.85;;;;;;;26.68;50.82;100294.53;5416582;32;33999;-69
2023/09/14 08:22:50;;;;;;;12.02;6.40;;;;;;;26.26;52.06;100291.87;5417836;32;33830;-69
2023/09/14 08:25:52;;;;;;;9.73;5.43;;;;;;;26.93;49.91;100298.09;5412217;32;34443;-76
2023/09/14 08:28:55;;;;;;;11.93;5.93;;;;;;;27.11;49.59;100300.66;5409362;32;35824;-69
2023/09/14 08:31:57;;;;;;;9.32;5.20;;;;;;;28.32;46.62;100298.69;5412606;32;33911;-69
2023/09/14 08:35:19;;;;;;;9.68;5.12;;;;;;;27.62;47.78;100302.09;5397600;32;34963;-77
2023/09/14 08:38:25;;;;;;;12.48;5.45;;;;;;;27.79;47.05;100305.66;5414368;32;35572;-70
2023/09/14 08:41:36;;;;;;;9.07;4.78;;;;;;;28.73;44.25;100310.12;5407171;32;34204;-64
2023/09/14 08:44:39;;;;;;;11.73;4.60;;;;;;;28.53;44.18;100304.34;5420082;32;34182;-77
2023/09/14 08:47:43;;;;;;;9.55;4.93;;;;;;;28.64;43.64;100294.13;5411596;32;36167;-78
2023/09/14 08:50:46;;;;;;;8.48;4.75;;;;;;;27.92;46.15;100297.00;5429137;32;35866;-76
2023/09/14 08:53:49;;;;;;;8.25;4.85;;;;;;;29.76;41.05;100296.06;5411447;32;35280;-73
2023/09/14 08:56:52;;;;;;;7.70;4.68;;;;;;;30.14;40.66;100287.81;5413312;32;35321;-74
2023/09/14 08:59:55;;;;;;;11.02;4.93;;;;;;;29.32;41.62;100293.28;5403908;32;35447;-74
2023/09/14 09:02:58;;;;;;;12.10;5.68;;;;;;;31.42;37.92;100290.63;5423759;32;34125;-74
2023/09/14 09:06:01;;;;;;;9.27;4.62;;;;;;;32.64;35.57;100297.31;5414067;32;35547;-73
2023/09/14 09:09:04;;;;;;;9.93;4.70;;;;;;;31.90;36.75;100290.75;5412594;32;35246;-71
2023/09/14 09:12:12;;;;;;;7.28;4.30;;;;;;;31.86;36.55;100289.47;5410502;32;35601;-73
2023/09/14 09:15:24;;;;;;;9.27;5.32;;;;;;;30.57;38.63;100293.34;5419570;32;34921;-73
2023/09/14 09:18:27;;;;;;;11.27;4.72;;;;;;;32.56;35.43;100290.19;5416125;32;33864;-74
2023/09/14 09:21:31;;;;;;;15.82;6.32;;;;;;;30.04;39.91;100304.34;5402672;32;34022;-74
2023/09/14 09:24:37;;;;;;;12.68;5.80;;;;;;;28.90;46.47;100307.28;5413753;32;36531;-73
2023/09/14 09:27:41;;;;;;;12.85;6.50;;;;;;;27.30;51.13;100307.56;5410449;32;34150;-74
2023/09/14 09:30:44;;;;;;;12.65;7.18;;;;;;;27.49;52.13;100318.81;5411786;32;34218;-75
2023/09/14 09:33:47;;;;;;;13.30;7.15;;;;;;;26.73;55.01;100314.59;5409259;32;34112;-73
2023/09/14 09:36:55;;;;;;;12.27;6.30;;;;;;;26.90;56.06;100318.13;5415279;32;34976;-73
2023/09/14 09:39:59;;;;;;;11.12;6.30;;;;;;;26.46;54.93;100325.63;5412080;32;35752;-75
2023/09/14 09:43:07;;;;;;;10.73;5.68;;;;;;;27.47;52.14;100306.53;5418324;32;36390;-75
2023/09/14 09:46:17;;;;;;;10.63;5.87;;;;;;;29.21;46.87;100304.53;5403335;32;34298;-75
2023/09/14 09:49:22;;;;;;;9.82;5.65;;;;;;;27.91;49.10;100303.41;5413445;32;35254;-71
2023/09/14 09:52:27;;;;;;;11.25;5.87;;;;;;;28.17;48.11;100297.75;5415602;32;34131;-72
2023/09/14 09:55:30;;;;;;;9.25;5.80;;;;;;;27.17;49.73;100299.97;5416157;32;34361;-81
2023/09/14 09:58:38;;;;;;;8.90;5.25;;;;;;;27.50;49.30;100298.06;5414639;32;33952;-69
2023/09/14 10:01:44;;;;;;;13.25;6.18;;;;;;;27.95;48.00;100299.34;5407625;32;35126;-67
2023/09/14 10:04:52;;;;;;;9.23;5.25;;;;;;;29.51;43.36;100297.31;5417454;32;33748;-68
2023/09/14 10:07:57;;;;;;;10.60;5.50;;;;;;;29.83;42.70;100285.31;5418143;32;34116;-76
2023/09/14 10:11:00;;;;;;;9.88;4.35;;;;;;;29.53;42.29;100296.12;5405991;32;34605;-69
2023/09/14 10:14:04;;;;;;;10.27;4.93;;;;;;;30.90;39.42;100282.84;5414990;32;33856;-69
2023/09/14 10:17:07;;;;;;;13.23;5.50;;;;;;;29.08;44.46;100292.47;5411024;32;33986;-73
2023/09/14 10:20:11;;;;;;;10.75;5.50;;;;;;;28.88;42.99;100294.78;5418186;32;34023;-70
2023/09/14 10:23:15;;;;;;;11.60;4.82;;;;;;;28.93;43.20;100293.44;5397174;32;33960;-71
2023/09/14 10:26:18;;;;;;;13.70;4.70;;;;;;;27.39;44.60;100304.69;5368018;32;36055;-70
2023/09/14 10:29:21;;;;;;;11.90;5.15;;;;;;;26.91;45.55;100314.44;5381590;32;36598;-71
2023/09/14 10:32:25;;;;;;;9.77;4.97;;;;;;;26.88;46.41;100308.53;5359563;32;36062;-78
2023/09/14 10:35:35;;;;;;;7.97;4.75;;;;;;;27.34;45.98;100309.75;5375136;32;36420;-77
2023/09/14 10:38:42;;;;;;;8.45;4.70;;;;;;;28.61;42.90;100308.84;5377329;32;34125;-72
2023/09/14 10:41:51;;;;;;;8.27;5.12;;;;;;;28.34;42.92;100304.78;5376838;32;33900;-83
2023/09/14 10:44:54;;;;;;;8.27;4.97;;;;;;;27.85;43.53;100304.94;5377154;32;34431;-80
2023/09/14 10:47:57;;;;;;;10.63;5.53;;;;;;;26.58;45.92;100310.00;5377266;32;36300;-73
2023/09/14 10:51:05;;;;;;;12.90;4.95;;;;;;;27.27;44.16;100306.03;5366714;32;35404;-89
2023/09/14 10:54:10;;;;;;;12.18;4.75;;;;;;;26.71;44.19;100304.97;5383971;32;34134;-82
2023/09/14 10:57:14;;;;;;;9.77;5.00;;;;;;;26.95;43.81;100302.31;5380120;32;34221;-74
2023/09/14 11:00:44;;;;;;;10.00;5.00;;;;;;;26.69;43.79;100307.00;5361713;32;34119;-81
2023/09/14 11:04:13;;;;;;;9.65;5.03;;;;;;;27.20;43.62;100294.25;5359406;32;35123;-75
2023/09/14 11:07:36;;;;;;;15.18;8.13;;;;;;;27.34;43.97;100296.25;5387674;32;33765;-79
2023/09/14 11:11:00;;;;;;;13.68;5.35;;;;;;;28.93;41.99;100302.41;5365392;32;35520;-77
2023/09/14 11:14:10;;;;;;;9.23;4.60;;;;;;;30.01;40.09;100296.59;5375030;32;35465;-74
2023/09/14 11:17:22;;;;;;;8.77;4.30;;;;;;;29.86;39.25;100301.19;5379168;32;34270;-75
2023/09/14 11:20:25;;;;;;;6.68;4.37;;;;;;;29.38;40.89;100306.06;5367077;32;34253;-74
2023/09/14 11:23:37;;;;;;;9.20;4.60;;;;;;;29.31;41.36;100297.84;5373158;32;34175;-75
2023/09/14 11:26:47;;;;;;;7.93;4.82;;;;;;;28.87;42.13;100301.22;5369910;32;33929;-73
2023/09/14 11:29:55;;;;;;;8.82;5.07;;;;;;;27.00;46.42;100309.91;5381540;32;35359;-75
2023/09/14 11:33:04;;;;;;;7.37;4.37;;;;;;;27.94;44.56;100308.47;5384315;32;35031;-80
2023/09/14 11:36:09;;;;;;;10.00;4.20;;;;;;;27.88;46.31;100307.28;5377910;32;35172;-74
2023/09/14 11:39:15;;;;;;;8.52;4.15;;;;;;;27.33;47.89;100309.94;5376863;32;35313;-77
2023/09/14 11:42:23;;;;;;;8.93;4.60;;;;;;;26.03;50.57;100310.47;5372447;32;34872;-72
2023/09/14 11:45:41;;;;;;;9.52;4.70;;;;;;;26.54;50.28;100309.50;5375999;32;35690;-72
2023/09/14 11:48:48;;;;;;;;;;;;;;;25.95;51.67;100322.03;5373730;32;35346;-80
2023/09/14 11:51:54;;;;;;;9.55;4.18;;;;;;;26.36;48.43;100317.66;5365696;32;35248;-70
2023/09/14 11:54:57;;;;;;;8.93;4.20;;;;;;;26.38;48.22;100310.25;5372795;32;33944;-70
2023/09/14 11:57:59;;;;;;;6.68;3.97;;;;;;;26.76;47.25;100308.03;5360545;32;34676;-70
2023/09/14 12:01:03;;;;;;;7.80;4.55;;;;;;;27.00;47.67;100318.00;5376204;32;32941;-77
2023/09/14 12:04:06;;;;;;;7.40;4.12;;;;;;;28.51;44.23;100317.16;5373440;32;36238;-76
2023/09/14 12:07:09;;;;;;;9.18;4.50;;;;;;;28.59;43.75;100318.97;5377889;32;35308;-76
2023/09/14 12:10:25;;;;;;;14.52;5.15;;;;;;;27.92;45.41;100319.44;5374226;32;33891;-84
2023/09/14 12:13:28;;;;;;;11.27;5.82;;;;;;;28.53;44.81;100315.16;5372343;32;35517;-80
2023/09/14 12:16:32;;;;;;;9.07;4.45;;;;;;;27.85;45.89;100313.06;5374465;32;35625;-79
2023/09/14 12:19:44;;;;;;;8.65;4.12;;;;;;;27.83;46.48;100317.78;5376163;32;34131;-76
2023/09/14 12:22:47;;;;;;;7.63;3.90;;;;;;;28.41;45.00;100311.16;5379149;32;33978;-76
2023/09/14 12:25:53;;;;;;;12.25;6.45;;;;;;;28.46;45.11;100316.84;5387664;32;33674;-72
2023/09/14 12:28:56;;;;;;;6.40;3.90;;;;;;;27.85;47.32;100321.16;5376600;32;34524;-79
2023/09/14 12:31:59;;;;;;;7.75;3.60;;;;;;;29.23;44.40;100316.00;5379705;32;34366;-72
2023/09/14 12:35:04;;;;;;;6.37;3.45;;;;;;;28.22;46.85;100319.69;5376350;32;33946;-70
2023/09/14 12:38:07;;;;;;;6.50;3.40;;;;;;;27.42;48.89;100319.69;5386241;32;33940;-80
2023/09/14 12:41:11;;;;;;;7.82;3.30;;;;;;;27.23;49.81;100320.88;5377917;32;34196;-78
2023/09/14 12:44:16;;;;;;;6.22;3.33;;;;;;;27.34;49.36;100319.69;5363620;32;34085;-74
2023/09/14 12:47:19;;;;;;;8.25;3.75;;;;;;;26.84;50.21;100317.97;5378721;32;35670;-83
2023/09/14 12:50:27;;;;;;;6.18;3.20;;;;;;;26.89;50.41;100321.00;5370028;32;35776;-69
2023/09/14 12:53:42;;;;;;;6.65;3.28;;;;;;;26.13;52.34;100325.47;5376034;32;36974;-70
2023/09/14 12:56:45;;;;;;;4.87;2.97;;;;;;;26.45;51.71;100326.66;5382552;32;35221;-70
2023/09/14 13:00:17;;;;;;;7.85;3.50;;;;;;;26.12;52.26;100323.81;5372823;32;34055;-73
2023/09/14 13:03:26;;;;;;;5.90;3.08;;;;;;;26.48;51.93;100333.56;5369489;32;38183;-77
2023/09/14 13:06:31;;;;;;;6.70;3.00;;;;;;;26.09;52.27;100334.91;5373666;32;33976;-72
2023/09/14 13:09:37;;;;;;;5.43;3.20;;;;;;;25.57;52.67;100339.47;5381079;32;33319;-75
2023/09/14 13:12:57;;;;;;;5.12;2.95;;;;;;;25.35;54.17;100336.25;5368411;32;35295;-74
2023/09/14 13:16:03;;;;;;;6.35;3.12;;;;;;;25.13;54.31;100347.53;5369272;32;35352;-72
2023/09/14 13:19:06;;;;;;;5.22;3.05;;;;;;;25.29;53.71;100347.66;5377724;32;34362;-69
2023/09/14 13:22:10;;;;;;;7.28;3.20;;;;;;;25.53;53.23;100343.47;5373627;32;34090;-65
2023/09/14 13:25:12;;;;;;;5.35;2.60;;;;;;;25.11;54.57;100360.25;5378250;32;36208;-67
2023/09/14 13:28:19;;;;;;;7.95;2.70;;;;;;;25.13;54.25;100347.53;5374685;32;35463;-70
2023/09/14 13:31:22;;;;;;;;;;;;;;;25.88;52.10;100355.97;5376804;32;36037;-69
2023/09/14 13:34:26;;;;;;;6.40;2.87;;;;;;;24.85;54.48;100352.06;5375514;32;35646;-72
2023/09/14 13:37:28;;;;;;;4.82;2.67;;;;;;;24.49;55.47;100351.22;5366829;32;33941;-73
2023/09/14 13:40:31;;;;;;;3.62;2.65;;;;;;;25.11;53.76;100352.19;5372884;32;34266;-74
2023/09/14 13:43:34;;;;;;;6.40;2.80;;;;;;;25.45;52.58;100348.78;5387155;32;32395;-68
2023/09/14 13:46:37;;;;;;;7.78;3.40;;;;;;;25.05;53.41;100352.81;5378883;32;33374;-74
2023/09/14 13:49:40;;;;;;;6.82;3.20;;;;;;;24.99;53.54;100353.38;5379457;32;34934;-70
2023/09/14 13:52:43;;;;;;;6.85;2.85;;;;;;;25.24;52.87;100358.00;5371959;32;35425;-75
2023/09/14 13:55:55;;;;;;;4.55;2.40;;;;;;;24.61;53.96;100359.91;5376252;32;32946;-77
2023/09/14 13:59:00;;;;;;;6.50;2.83;;;;;;;25.07;52.76;100366.97;5421497;32;34088;-68
2023/09/14 14:02:03;;;;;;;;;;;;;;;24.71;53.93;100366.88;5447829;32;34185;-76
2023/09/14 14:05:06;;;;;;;7.05;2.72;;;;;;;24.58;53.72;100374.47;5442095;32;34238;-77
2023/09/14 14:08:08;;;;;;;6.05;3.08;;;;;;;24.49;54.63;100378.06;5447137;32;33994;-75
2023/09/14 14:11:11;;;;;;;7.22;2.90;;;;;;;24.81;53.20;100369.53;5446465;32;35922;-68
2023/09/14 14:14:13;;;;;;;7.93;2.72;;;;;;;24.90;53.04;100373.97;5440802;32;34224;-69
2023/09/14 14:17:29;;;;;;;6.18;2.97;;;;;;;25.73;50.58;100377.28;5446935;32;34011;-72
2023/09/14 14:20:31;;;;;;;6.50;3.17;;;;;;;24.45;53.98;100379.34;5447152;32;34029;-72
2023/09/14 14:23:33;;;;;;;5.90;2.85;;;;;;;24.64;53.81;100375.72;5450240;32;34096;-68